createdAt,value
2022-11-27T00:00:30.890Z,4.30
2022-11-27T00:01:30.915Z,5.70
2022-11-27T00:02:31.890Z,4.10
2022-11-27T00:03:31.017Z,5.20
2022-11-27T00:04:30.896Z,4.40
2022-11-27T00:05:30.840Z,4.10
2022-11-27T00:06:30.841Z,4.30
2022-11-27T00:07:30.832Z,4.50
2022-11-27T00:08:30.783Z,5.10
2022-11-27T00:09:30.827Z,4.20
2022-11-27T00:10:30.771Z,5.60
2022-11-27T00:11:30.751Z,4.80
2022-11-27T00:12:30.770Z,4.40
2022-11-27T00:13:30.737Z,4.60
2022-11-27T00:14:30.717Z,4.90
2022-11-27T00:15:30.942Z,5.10
2022-11-27T00:16:30.730Z,4.50
2022-11-27T00:17:30.690Z,5.60
2022-11-27T00:18:30.706Z,4.80
2022-11-27T00:19:30.693Z,4.80
2022-11-27T00:20:30.666Z,4.40
2022-11-27T00:21:30.637Z,4.30
2022-11-27T00:22:30.659Z,4.90
2022-11-27T00:23:30.620Z,4.60
2022-11-27T00:24:30.607Z,5.40
2022-11-27T00:25:30.614Z,4.80
2022-11-27T00:26:36.048Z,5.30
2022-11-27T00:27:30.583Z,4.80
2022-11-27T00:28:30.581Z,4.60
2022-11-27T00:29:30.586Z,4.90
2022-11-27T00:30:30.540Z,5.40
2022-11-27T00:32:26.339Z,8.00
2022-11-27T00:33:27.343Z,5.60
2022-11-27T00:34:27.317Z,4.90
2022-11-27T00:35:27.301Z,5.30
2022-11-27T00:36:27.325Z,5.30
2022-11-27T00:37:27.279Z,4.90
2022-11-27T00:38:27.284Z,4.90
2022-11-27T00:39:27.300Z,4.50
2022-11-27T00:40:27.259Z,5.40
2022-11-27T00:41:27.266Z,8.60
2022-11-27T00:42:27.339Z,9.00
2022-11-27T00:43:27.210Z,8.90
2022-11-27T00:44:27.213Z,4.90
2022-11-27T00:45:27.192Z,5.70
2022-11-27T00:46:28.942Z,5.10
2022-11-27T00:47:27.168Z,4.70
2022-11-27T00:48:27.170Z,5.20
2022-11-27T00:49:27.300Z,6.20
2022-11-27T00:50:27.151Z,5.90
2022-11-27T00:51:27.127Z,5.30
2022-11-27T00:52:27.135Z,6.10
2022-11-27T00:53:27.102Z,6.20
2022-11-27T00:54:27.118Z,5.50
2022-11-27T00:55:27.099Z,5.50
2022-11-27T00:56:27.078Z,5.20
2022-11-27T00:57:27.060Z,5.00
2022-11-27T00:58:27.059Z,6.40
2022-11-27T00:59:27.063Z,5.10
2022-11-27T01:00:27.087Z,5.00
2022-11-27T01:01:27.130Z,5.60
2022-11-27T01:02:27.067Z,6.10
2022-11-27T01:03:27.000Z,5.90
2022-11-27T01:04:26.982Z,6.10
2022-11-27T01:05:26.974Z,5.60
2022-11-27T01:06:27.032Z,5.90
2022-11-27T01:07:27.032Z,6.00
2022-11-27T01:08:26.962Z,6.90
2022-11-27T01:09:26.945Z,4.90
2022-11-27T01:10:26.923Z,6.30
2022-11-27T01:11:26.987Z,5.90
2022-11-27T01:12:26.921Z,5.80
2022-11-27T01:13:26.923Z,5.20
2022-11-27T01:14:26.878Z,5.00
2022-11-27T01:15:26.873Z,5.50
2022-11-27T01:16:27.041Z,5.90
2022-11-27T01:17:27.559Z,5.70
2022-11-27T01:18:26.832Z,5.90
2022-11-27T01:19:26.855Z,5.60
2022-11-27T01:20:26.811Z,5.30
2022-11-27T01:21:26.809Z,5.40
2022-11-27T01:22:26.850Z,5.20
2022-11-27T01:23:26.779Z,5.60
2022-11-27T01:24:26.791Z,4.90
2022-11-27T01:25:27.268Z,5.60
2022-11-27T01:26:26.755Z,6.10
2022-11-27T01:27:26.752Z,6.40
2022-11-27T01:28:26.733Z,5.80
2022-11-27T01:29:26.757Z,6.30
2022-11-27T01:30:26.736Z,6.20
2022-11-27T01:31:26.794Z,5.00
2022-11-27T01:32:34.271Z,5.20
2022-11-27T01:33:26.680Z,5.30
2022-11-27T01:34:26.908Z,5.80
2022-11-27T01:35:26.648Z,6.70
2022-11-27T01:36:26.675Z,5.20
2022-11-27T01:37:26.626Z,6.20
2022-11-27T01:38:26.642Z,5.30
2022-11-27T01:39:26.612Z,5.60
2022-11-27T01:40:26.598Z,5.10
2022-11-27T01:41:26.588Z,6.10
2022-11-27T01:42:26.595Z,5.10
2022-11-27T01:43:26.574Z,5.20
2022-11-27T01:44:26.573Z,5.60
2022-11-27T01:45:26.543Z,5.90
2022-11-27T01:46:26.667Z,5.80
2022-11-27T01:47:26.522Z,6.30
2022-11-27T01:48:26.534Z,5.10
2022-11-27T01:49:26.508Z,5.20
2022-11-27T01:50:26.492Z,5.50
2022-11-27T01:51:26.470Z,6.10
2022-11-27T01:52:26.480Z,5.60
2022-11-27T01:53:26.450Z,5.80
2022-11-27T01:54:26.455Z,5.00
2022-11-27T01:55:26.424Z,5.20
2022-11-27T01:56:26.424Z,5.80
2022-11-27T01:57:26.420Z,6.00
2022-11-27T01:58:26.407Z,6.50
2022-11-27T01:59:26.390Z,6.00
2022-11-27T02:00:26.373Z,6.90
2022-11-27T02:01:26.459Z,5.60
2022-11-27T02:02:26.406Z,5.90
2022-11-27T02:03:26.464Z,6.70
2022-11-27T02:04:26.333Z,6.00
2022-11-27T02:05:26.330Z,6.30
2022-11-27T02:06:26.305Z,6.50
2022-11-27T02:07:26.394Z,5.40
2022-11-27T02:08:26.326Z,6.50
2022-11-27T02:09:26.285Z,5.80
2022-11-27T02:10:26.265Z,5.60
2022-11-27T02:11:26.244Z,5.60
2022-11-27T02:12:26.234Z,6.00
2022-11-27T02:13:26.239Z,5.60
2022-11-27T02:14:26.222Z,6.30
2022-11-27T02:15:26.338Z,6.80
2022-11-27T02:16:26.328Z,6.10
2022-11-27T02:17:26.196Z,5.80
2022-11-27T02:18:26.266Z,5.80
2022-11-27T02:19:26.173Z,5.70
2022-11-27T02:20:26.164Z,5.30
2022-11-27T02:21:26.131Z,6.10
2022-11-27T02:22:26.129Z,6.50
2022-11-27T02:23:26.116Z,7.10
2022-11-27T02:24:26.106Z,7.30
2022-11-27T02:25:28.465Z,6.70
2022-11-27T02:26:26.076Z,6.70
2022-11-27T02:27:26.078Z,6.60
2022-11-27T02:28:26.061Z,7.30
2022-11-27T02:29:26.054Z,6.20
2022-11-27T02:30:26.051Z,6.00
2022-11-27T02:31:26.163Z,5.60
2022-11-27T02:32:34.520Z,5.40
2022-11-27T02:33:26.024Z,6.30
2022-11-27T02:34:26.032Z,6.20
2022-11-27T02:35:25.997Z,5.70
2022-11-27T02:36:25.975Z,5.60
2022-11-27T02:37:25.963Z,5.70
2022-11-27T02:38:25.954Z,5.70
2022-11-27T02:39:25.943Z,5.50
2022-11-27T02:40:25.942Z,4.90
2022-11-27T02:41:25.947Z,5.60
2022-11-27T02:42:25.911Z,5.60
2022-11-27T02:43:25.893Z,5.70
2022-11-27T02:44:25.917Z,5.40
2022-11-27T02:45:25.884Z,6.30
2022-11-27T02:46:25.932Z,4.70
2022-11-27T02:47:25.859Z,6.00
2022-11-27T02:48:25.876Z,5.20
2022-11-27T02:49:25.827Z,5.10
2022-11-27T02:50:25.835Z,5.80
2022-11-27T02:51:25.843Z,5.00
2022-11-27T02:52:25.808Z,5.30
2022-11-27T02:53:25.799Z,5.10
2022-11-27T02:54:25.788Z,5.70
2022-11-27T02:55:25.773Z,5.40
2022-11-27T02:56:25.756Z,4.90
2022-11-27T02:57:25.778Z,5.30
2022-11-27T02:58:25.747Z,5.00
2022-11-27T02:59:25.732Z,4.70
2022-11-27T03:00:25.725Z,5.40
2022-11-27T03:01:25.772Z,5.50
2022-11-27T03:02:25.734Z,5.00
2022-11-27T03:03:25.684Z,5.50
2022-11-27T03:04:25.692Z,4.90
2022-11-27T03:05:25.724Z,5.40
2022-11-27T03:06:25.676Z,4.70
2022-11-27T03:07:25.745Z,5.10
2022-11-27T03:08:25.654Z,4.90
2022-11-27T03:09:25.738Z,4.60
2022-11-27T03:10:25.633Z,4.80
2022-11-27T03:11:25.593Z,4.80
2022-11-27T03:12:25.584Z,4.90
2022-11-27T03:13:25.584Z,5.40
2022-11-27T03:14:25.556Z,5.20
2022-11-27T03:15:25.548Z,5.40
2022-11-27T03:16:25.609Z,5.00
2022-11-27T03:17:25.535Z,4.50
2022-11-27T03:18:25.535Z,5.00
2022-11-27T03:19:25.521Z,5.00
2022-11-27T03:20:25.509Z,5.00
2022-11-27T03:21:25.510Z,5.00
2022-11-27T03:22:25.502Z,5.70
2022-11-27T03:23:25.470Z,5.30
2022-11-27T03:24:25.473Z,4.30
2022-11-27T03:25:25.490Z,3.90
2022-11-27T03:26:25.450Z,4.70
2022-11-27T03:27:25.415Z,5.00
2022-11-27T03:28:25.470Z,4.70
2022-11-27T03:29:25.419Z,4.50
2022-11-27T03:30:25.472Z,4.20
2022-11-27T03:31:25.423Z,4.20
2022-11-27T03:32:32.888Z,4.60
2022-11-27T03:33:25.380Z,4.60
2022-11-27T03:34:25.378Z,4.20
2022-11-27T03:35:25.347Z,4.70
2022-11-27T03:36:25.356Z,4.70
2022-11-27T03:37:25.476Z,4.60
2022-11-27T03:38:25.336Z,4.40
2022-11-27T03:39:25.299Z,4.00
2022-11-27T03:40:25.285Z,4.10
2022-11-27T03:41:25.300Z,4.80
2022-11-27T03:42:25.277Z,4.50
2022-11-27T03:43:25.263Z,4.80
2022-11-27T03:44:25.265Z,4.10
2022-11-27T03:45:25.232Z,4.30
2022-11-27T03:46:25.301Z,4.40
2022-11-27T03:47:25.297Z,4.20
2022-11-27T03:48:25.198Z,4.60
2022-11-27T03:49:25.202Z,4.20
2022-11-27T03:50:25.214Z,4.30
2022-11-27T03:51:25.217Z,4.40
2022-11-27T03:52:25.160Z,3.80
2022-11-27T03:53:25.189Z,4.30
2022-11-27T03:54:25.141Z,3.60
2022-11-27T03:55:25.145Z,5.10
2022-11-27T03:56:25.127Z,5.50
2022-11-27T03:57:25.106Z,4.40
2022-11-27T03:58:25.091Z,4.60
2022-11-27T03:59:25.099Z,4.00
2022-11-27T04:00:25.111Z,3.90
2022-11-27T04:01:25.095Z,4.60
2022-11-27T04:02:25.072Z,4.60
2022-11-27T04:03:25.133Z,4.20
2022-11-27T04:04:25.041Z,4.70
2022-11-27T04:05:25.035Z,4.60
2022-11-27T04:06:25.038Z,4.00
2022-11-27T04:07:25.037Z,4.80
2022-11-27T04:08:24.982Z,4.20
2022-11-27T04:09:24.998Z,4.30
2022-11-27T04:10:24.963Z,4.00
2022-11-27T04:11:24.974Z,4.00
2022-11-27T04:12:25.082Z,4.60
2022-11-27T04:13:24.936Z,4.70
2022-11-27T04:14:25.018Z,4.10
2022-11-27T04:15:24.923Z,4.40
2022-11-27T04:16:24.995Z,4.20
2022-11-27T04:17:24.889Z,4.30
2022-11-27T04:18:24.894Z,4.70
2022-11-27T04:19:24.865Z,4.80
2022-11-27T04:20:24.874Z,4.40
2022-11-27T04:21:24.852Z,5.00
2022-11-27T04:22:24.842Z,4.50
2022-11-27T04:23:24.828Z,4.50
2022-11-27T04:24:24.813Z,4.40
2022-11-27T04:25:24.804Z,4.80
2022-11-27T04:26:24.787Z,4.80
2022-11-27T04:27:24.834Z,4.40
2022-11-27T04:28:24.769Z,4.90
2022-11-27T04:29:24.767Z,4.60
2022-11-27T04:30:24.754Z,5.00
2022-11-27T04:31:24.794Z,4.90
2022-11-27T04:32:32.249Z,4.60
2022-11-27T04:33:24.740Z,4.70
2022-11-27T04:34:24.703Z,4.40
2022-11-27T04:35:24.713Z,4.50
2022-11-27T04:36:24.677Z,4.60
2022-11-27T04:37:24.680Z,5.90
2022-11-27T04:38:24.655Z,5.20
2022-11-27T04:39:24.663Z,5.10
2022-11-27T04:40:24.646Z,4.80
2022-11-27T04:41:24.625Z,4.80
2022-11-27T04:42:24.629Z,5.20
2022-11-27T04:43:24.618Z,4.10
2022-11-27T04:44:24.590Z,4.10
2022-11-27T04:45:24.585Z,4.70
2022-11-27T04:46:24.601Z,4.90
2022-11-27T04:47:24.562Z,4.50
2022-11-27T04:48:24.564Z,5.40
2022-11-27T04:49:24.549Z,4.90
2022-11-27T04:50:24.533Z,4.30
2022-11-27T04:51:24.533Z,4.70
2022-11-27T04:52:24.513Z,4.10
2022-11-27T04:53:24.526Z,4.70
2022-11-27T04:54:24.517Z,5.50
2022-11-27T04:55:24.474Z,5.20
2022-11-27T04:56:24.470Z,4.40
2022-11-27T04:57:24.458Z,4.90
2022-11-27T04:58:24.478Z,5.50
2022-11-27T04:59:24.458Z,5.10
2022-11-27T05:00:24.471Z,4.60
2022-11-27T05:01:24.462Z,4.90
2022-11-27T05:02:24.492Z,4.80
2022-11-27T05:03:24.469Z,4.70
2022-11-27T05:04:24.379Z,5.60
2022-11-27T05:05:24.366Z,5.50
2022-11-27T05:06:24.351Z,6.10
2022-11-27T05:07:24.437Z,5.40
2022-11-27T05:08:24.349Z,5.30
2022-11-27T05:09:24.338Z,5.50
2022-11-27T05:10:24.333Z,4.80
2022-11-27T05:11:24.322Z,5.40
2022-11-27T05:12:24.307Z,5.00
2022-11-27T05:13:24.299Z,5.50
2022-11-27T05:14:24.328Z,5.00
2022-11-27T05:15:24.270Z,5.40
2022-11-27T05:16:24.272Z,5.50
2022-11-27T05:17:24.243Z,5.00
2022-11-27T05:18:24.229Z,4.90
2022-11-27T05:19:24.221Z,5.30
2022-11-27T05:20:24.197Z,5.50
2022-11-27T05:21:24.185Z,5.50
2022-11-27T05:22:24.192Z,6.10
2022-11-27T05:23:24.198Z,5.20
2022-11-27T05:24:24.190Z,5.60
2022-11-27T05:25:24.174Z,6.20
2022-11-27T05:26:24.141Z,5.30
2022-11-27T05:27:24.127Z,5.30
2022-11-27T05:28:26.838Z,6.00
2022-11-27T05:29:24.105Z,6.10
2022-11-27T05:30:24.108Z,5.30
2022-11-27T05:31:24.123Z,5.30
2022-11-27T05:32:31.583Z,5.10
2022-11-27T05:33:24.063Z,5.40
2022-11-27T05:34:24.051Z,5.50
2022-11-27T05:35:24.062Z,6.10
2022-11-27T05:36:24.017Z,5.50
2022-11-27T05:37:24.010Z,5.00
2022-11-27T05:38:24.018Z,5.10
2022-11-27T05:39:23.986Z,5.50
2022-11-27T05:40:24.012Z,4.90
2022-11-27T05:41:23.982Z,5.30
2022-11-27T05:42:23.982Z,5.50
2022-11-27T05:43:23.954Z,4.90
2022-11-27T05:44:23.942Z,5.90
2022-11-27T05:45:23.924Z,5.20
2022-11-27T05:46:24.008Z,6.10
2022-11-27T05:47:24.121Z,5.90
2022-11-27T05:48:23.901Z,5.60
2022-11-27T05:49:23.886Z,5.70
2022-11-27T05:50:24.383Z,5.10
2022-11-27T05:51:23.893Z,5.70
2022-11-27T05:52:23.853Z,5.20
2022-11-27T05:53:23.865Z,5.50
2022-11-27T05:54:23.855Z,5.50
2022-11-27T05:55:23.825Z,5.40
2022-11-27T05:56:23.845Z,5.30
2022-11-27T05:57:23.799Z,6.50
2022-11-27T05:58:23.807Z,5.40
2022-11-27T05:59:23.785Z,6.10
2022-11-27T06:00:23.769Z,5.70
2022-11-27T06:01:23.777Z,5.40
2022-11-27T06:02:28.940Z,5.50
2022-11-27T06:03:23.830Z,5.40
2022-11-27T06:04:23.735Z,5.70
2022-11-27T06:05:23.715Z,6.00
2022-11-27T06:06:23.722Z,4.70
2022-11-27T06:07:23.791Z,4.80
2022-11-27T06:08:23.714Z,5.20
2022-11-27T06:09:23.701Z,5.40
2022-11-27T06:10:23.662Z,6.20
2022-11-27T06:11:23.657Z,5.80
2022-11-27T06:12:23.653Z,5.20
2022-11-27T06:13:23.651Z,5.30
2022-11-27T06:14:23.645Z,5.60
2022-11-27T06:15:23.613Z,4.90
2022-11-27T06:16:24.701Z,5.30
2022-11-27T06:17:23.615Z,5.00
2022-11-27T06:18:23.615Z,5.40
2022-11-27T06:19:23.592Z,5.10
2022-11-27T06:20:23.565Z,5.40
2022-11-27T06:21:23.564Z,5.00
2022-11-27T06:22:23.555Z,5.00
2022-11-27T06:23:23.542Z,5.40
2022-11-27T06:24:23.518Z,5.10
2022-11-27T06:25:23.662Z,5.40
2022-11-27T06:26:23.492Z,5.00
2022-11-27T06:27:23.568Z,4.60
2022-11-27T06:28:23.478Z,5.70
2022-11-27T06:29:23.493Z,4.90
2022-11-27T06:30:23.450Z,5.00
2022-11-27T06:31:23.520Z,5.70
2022-11-27T06:32:29.992Z,5.40
2022-11-27T06:33:23.446Z,5.40
2022-11-27T06:34:23.414Z,5.30
2022-11-27T06:35:23.422Z,5.40
2022-11-27T06:36:23.398Z,5.30
2022-11-27T06:37:23.374Z,5.20
2022-11-27T06:38:23.379Z,5.10
2022-11-27T06:39:23.425Z,4.80
2022-11-27T06:40:23.354Z,4.60
2022-11-27T06:41:23.373Z,5.90
2022-11-27T06:42:23.332Z,5.30
2022-11-27T06:43:23.344Z,5.00
2022-11-27T06:44:23.354Z,4.60
2022-11-27T06:45:23.339Z,4.70
2022-11-27T06:46:23.283Z,4.80
2022-11-27T06:47:23.271Z,5.10
2022-11-27T06:48:23.288Z,5.10
2022-11-27T06:49:23.257Z,5.90
2022-11-27T06:50:23.255Z,4.80
2022-11-27T06:51:23.242Z,4.80
2022-11-27T06:52:23.221Z,5.40
2022-11-27T06:53:23.250Z,5.20
2022-11-27T06:54:23.211Z,5.10
2022-11-27T06:55:23.190Z,4.40
2022-11-27T06:56:23.178Z,5.70
2022-11-27T06:57:23.171Z,4.80
2022-11-27T06:58:27.810Z,4.90
2022-11-27T06:59:23.263Z,5.40
2022-11-27T07:00:23.729Z,5.80
2022-11-27T07:01:23.409Z,5.50
2022-11-27T07:02:23.201Z,4.60
2022-11-27T07:03:23.164Z,5.90
2022-11-27T07:04:23.121Z,4.40
2022-11-27T07:05:23.110Z,4.90
2022-11-27T07:06:23.082Z,5.60
2022-11-27T07:07:23.114Z,4.90
2022-11-27T07:08:23.097Z,5.30
2022-11-27T07:09:23.070Z,4.70
2022-11-27T07:10:23.039Z,5.10
2022-11-27T07:11:23.053Z,5.40
2022-11-27T07:12:23.089Z,5.30
2022-11-27T07:13:23.024Z,5.40
2022-11-27T07:14:23.010Z,5.30
2022-11-27T07:15:22.999Z,4.90
2022-11-27T07:16:23.054Z,5.00
2022-11-27T07:17:22.980Z,5.30
2022-11-27T07:18:22.949Z,4.40
2022-11-27T07:19:23.748Z,4.60
2022-11-27T07:20:22.954Z,5.40
2022-11-27T07:21:22.925Z,4.80
2022-11-27T07:22:22.900Z,5.80
2022-11-27T07:23:22.899Z,4.50
2022-11-27T07:24:22.910Z,5.40
2022-11-27T07:25:22.884Z,4.90
2022-11-27T07:26:22.871Z,4.70
2022-11-27T07:27:22.854Z,5.00
2022-11-27T07:28:22.873Z,5.10
2022-11-27T07:29:22.838Z,5.20
2022-11-27T07:30:22.833Z,5.10
2022-11-27T07:31:22.846Z,5.00
2022-11-27T07:32:30.327Z,5.30
2022-11-27T07:33:22.799Z,5.00
2022-11-27T07:34:22.772Z,4.60
2022-11-27T07:35:22.792Z,5.30
2022-11-27T07:36:22.779Z,4.90
2022-11-27T07:37:22.751Z,5.60
2022-11-27T07:38:22.734Z,4.40
2022-11-27T07:39:39.709Z,4.90
2022-11-27T07:40:22.734Z,4.90
2022-11-27T07:41:22.707Z,5.10
2022-11-27T07:42:37.525Z,4.60
2022-11-27T07:43:22.698Z,5.10
2022-11-27T07:44:22.688Z,5.20
2022-11-27T07:45:22.717Z,5.20
2022-11-27T07:46:22.751Z,5.50
2022-11-27T07:47:22.657Z,5.40
2022-11-27T07:48:22.628Z,4.80
2022-11-27T07:49:22.627Z,4.80
2022-11-27T07:50:22.615Z,5.60
2022-11-27T07:51:22.610Z,5.10
2022-11-27T07:52:22.588Z,5.30
2022-11-27T07:53:22.583Z,5.40
2022-11-27T07:54:22.569Z,5.60
2022-11-27T07:55:22.556Z,5.30
2022-11-27T07:56:22.571Z,5.10
2022-11-27T07:57:22.573Z,5.30
2022-11-27T07:58:22.525Z,4.80
2022-11-27T07:59:22.522Z,5.10
2022-11-27T08:00:22.535Z,5.40
2022-11-27T08:01:22.587Z,5.90
2022-11-27T08:02:22.488Z,5.20
2022-11-27T08:03:22.469Z,5.90
2022-11-27T08:04:22.558Z,6.00
2022-11-27T08:05:22.495Z,4.80
2022-11-27T08:06:22.474Z,5.00
2022-11-27T08:07:22.509Z,4.90
2022-11-27T08:08:22.427Z,5.10
2022-11-27T08:09:22.413Z,5.30
2022-11-27T08:10:22.400Z,5.10
2022-11-27T08:11:22.388Z,5.60
2022-11-27T08:12:22.395Z,5.40
2022-11-27T08:13:22.364Z,5.60
2022-11-27T08:14:22.355Z,5.40
2022-11-27T08:15:22.353Z,5.90
2022-11-27T08:16:22.395Z,5.70
2022-11-27T08:17:22.334Z,6.10
2022-11-27T08:18:22.317Z,5.20
2022-11-27T08:19:22.295Z,5.30
2022-11-27T08:20:22.302Z,5.80
2022-11-27T08:21:22.281Z,5.70
2022-11-27T08:22:22.285Z,5.90
2022-11-27T08:23:22.257Z,5.00
2022-11-27T08:24:22.250Z,5.60
2022-11-27T08:25:22.255Z,5.50
2022-11-27T08:26:22.258Z,5.50
2022-11-27T08:27:22.229Z,5.30
2022-11-27T08:28:22.208Z,5.50
2022-11-27T08:29:22.191Z,5.60
2022-11-27T08:30:22.200Z,5.20
2022-11-27T08:31:22.203Z,6.00
2022-11-27T08:32:28.718Z,5.80
2022-11-27T08:33:22.145Z,5.70
2022-11-27T08:34:22.151Z,5.70
2022-11-27T08:35:22.148Z,6.10
2022-11-27T08:36:22.133Z,5.30
2022-11-27T08:37:22.126Z,5.60
2022-11-27T08:38:22.129Z,6.00
2022-11-27T08:39:22.120Z,5.30
2022-11-27T08:40:22.099Z,6.20
2022-11-27T08:41:22.086Z,5.50
2022-11-27T08:42:22.069Z,6.50
2022-11-27T08:43:22.079Z,5.90
2022-11-27T08:44:22.080Z,5.80
2022-11-27T08:45:22.110Z,5.50
2022-11-27T08:46:22.189Z,5.70
2022-11-27T08:47:22.048Z,6.70
2022-11-27T08:48:22.076Z,5.80
2022-11-27T08:49:21.985Z,5.80
2022-11-27T08:50:22.017Z,5.90
2022-11-27T08:51:21.974Z,6.00
2022-11-27T08:52:21.955Z,5.30
2022-11-27T08:53:21.962Z,5.70
2022-11-27T08:54:21.938Z,6.20
2022-11-27T08:55:21.917Z,6.60
2022-11-27T08:56:21.912Z,6.50
2022-11-27T08:57:21.905Z,6.50
2022-11-27T08:58:21.910Z,6.00
2022-11-27T08:59:21.895Z,6.00
2022-11-27T09:00:27.540Z,6.80
2022-11-27T09:01:22.009Z,5.90
2022-11-27T09:02:21.846Z,6.20
2022-11-27T09:03:21.853Z,6.20
2022-11-27T09:04:21.940Z,6.00
2022-11-27T09:05:21.816Z,5.00
2022-11-27T09:06:21.806Z,5.90
2022-11-27T09:07:21.882Z,6.30
2022-11-27T09:08:21.814Z,5.50
2022-11-27T09:09:21.824Z,6.20
2022-11-27T09:10:21.763Z,6.10
2022-11-27T09:11:21.758Z,6.70
2022-11-27T09:12:21.790Z,6.00
2022-11-27T09:13:21.729Z,6.20
2022-11-27T09:14:21.740Z,6.70
2022-11-27T09:15:21.711Z,6.40
2022-11-27T09:16:21.788Z,7.40
2022-11-27T09:17:21.730Z,6.10
2022-11-27T09:18:21.684Z,6.60
2022-11-27T09:19:21.679Z,6.90
2022-11-27T09:20:21.671Z,7.00
2022-11-27T09:21:21.638Z,6.90
2022-11-27T09:22:21.660Z,6.30
2022-11-27T09:23:21.615Z,6.70
2022-11-27T09:24:21.612Z,6.80
2022-11-27T09:25:21.668Z,7.70
2022-11-27T09:26:21.590Z,7.00
2022-11-27T09:27:21.577Z,7.10
2022-11-27T09:28:21.925Z,6.60
2022-11-27T09:29:21.548Z,7.10
2022-11-27T09:30:21.572Z,6.90
2022-11-27T09:31:21.532Z,7.00
2022-11-27T09:32:29.049Z,7.50
2022-11-27T09:33:21.522Z,7.40
2022-11-27T09:34:21.499Z,7.30
2022-11-27T09:35:21.636Z,7.10
2022-11-27T09:36:21.482Z,7.00
2022-11-27T09:37:21.471Z,7.80
2022-11-27T09:38:21.487Z,7.10
2022-11-27T09:39:21.473Z,7.30
2022-11-27T09:40:21.452Z,7.40
2022-11-27T09:41:21.905Z,7.10
2022-11-27T09:42:21.470Z,7.70
2022-11-27T09:43:21.539Z,6.90
2022-11-27T09:44:21.406Z,6.60
2022-11-27T09:45:21.389Z,7.50
2022-11-27T09:46:21.415Z,7.80
2022-11-27T09:47:21.845Z,7.20
2022-11-27T09:48:21.377Z,7.40
2022-11-27T09:49:21.346Z,7.10
2022-11-27T09:50:21.462Z,7.20
2022-11-27T09:51:21.456Z,7.30
2022-11-27T09:52:21.372Z,7.60
2022-11-27T09:53:21.294Z,6.70
2022-11-27T09:54:21.303Z,7.10
2022-11-27T09:55:21.274Z,6.80
2022-11-27T09:56:21.294Z,7.20
2022-11-27T09:57:21.262Z,7.30
2022-11-27T09:58:21.249Z,6.90
2022-11-27T09:59:21.263Z,7.40
2022-11-27T10:00:21.270Z,7.70
2022-11-27T10:01:21.316Z,6.90
2022-11-27T10:02:21.318Z,7.00
2022-11-27T10:03:21.248Z,7.60
2022-11-27T10:04:21.215Z,7.00
2022-11-27T10:05:21.709Z,6.60
2022-11-27T10:06:21.181Z,7.70
2022-11-27T10:07:21.275Z,7.50
2022-11-27T10:08:21.148Z,7.30
2022-11-27T10:09:21.130Z,7.80
2022-11-27T10:10:21.214Z,7.40
2022-11-27T10:11:21.158Z,7.20
2022-11-27T10:12:21.121Z,6.90
2022-11-27T10:13:21.090Z,6.80
2022-11-27T10:14:21.076Z,6.90
2022-11-27T10:15:21.088Z,7.30
2022-11-27T10:16:21.116Z,7.00
2022-11-27T10:17:21.049Z,7.40
2022-11-27T10:18:21.022Z,7.50
2022-11-27T10:19:21.018Z,7.30
2022-11-27T10:20:21.006Z,8.20
2022-11-27T10:21:20.993Z,7.30
2022-11-27T10:22:21.514Z,7.00
2022-11-27T10:23:20.968Z,7.30
2022-11-27T10:24:20.962Z,7.80
2022-11-27T10:25:20.986Z,8.20
2022-11-27T10:26:20.951Z,7.90
2022-11-27T10:27:20.955Z,7.50
2022-11-27T10:28:21.013Z,7.70
2022-11-27T10:29:20.901Z,8.20
2022-11-27T10:30:20.887Z,8.20
2022-11-27T10:31:20.937Z,8.30
2022-11-27T10:33:20.886Z,9.00
2022-11-27T10:34:20.861Z,8.00
2022-11-27T10:35:20.833Z,6.90
2022-11-27T10:36:20.829Z,7.60
2022-11-27T10:37:20.832Z,7.50
2022-11-27T10:38:20.825Z,7.70
2022-11-27T10:39:20.796Z,7.70
2022-11-27T10:40:20.782Z,7.40
2022-11-27T10:42:20.764Z,6.70
2022-11-27T10:43:20.791Z,7.00
2022-11-27T10:44:20.768Z,7.50
2022-11-27T10:45:20.727Z,7.20
2022-11-27T10:46:20.803Z,6.50
2022-11-27T10:47:20.734Z,8.20
2022-11-27T10:48:20.698Z,7.80
2022-11-27T10:49:20.679Z,8.30
2022-11-27T10:50:20.677Z,7.40
2022-11-27T10:51:20.661Z,8.50
2022-11-27T10:52:20.639Z,7.70
2022-11-27T10:53:20.649Z,8.10
2022-11-27T10:54:20.653Z,8.70
2022-11-27T10:55:20.608Z,7.90
2022-11-27T10:56:20.605Z,8.30
2022-11-27T10:57:20.581Z,8.20
2022-11-27T10:58:20.599Z,8.20
2022-11-27T10:59:20.571Z,8.40
2022-11-27T11:00:20.557Z,7.90
2022-11-27T11:01:20.667Z,7.80
2022-11-27T11:02:20.568Z,8.00
2022-11-27T11:03:20.539Z,7.80
2022-11-27T11:06:22.788Z,8.60
2022-11-27T11:07:20.580Z,8.30
2022-11-27T11:08:20.477Z,8.10
2022-11-27T11:09:20.468Z,8.10
2022-11-27T11:10:20.443Z,8.30
2022-11-27T11:11:20.435Z,7.90
2022-11-27T11:12:20.480Z,7.30
2022-11-27T11:13:20.427Z,7.70
2022-11-27T11:14:20.411Z,7.90
2022-11-27T11:15:20.430Z,8.00
2022-11-27T11:16:24.169Z,8.00
2022-11-27T11:17:20.409Z,7.70
2022-11-27T11:18:20.360Z,7.80
2022-11-27T11:19:20.376Z,8.00
2022-11-27T11:20:20.335Z,8.10
2022-11-27T11:21:20.325Z,8.20
2022-11-27T11:22:20.311Z,7.80
2022-11-27T11:23:20.302Z,8.10
2022-11-27T11:24:20.348Z,8.60
2022-11-27T11:25:20.271Z,8.10
2022-11-27T11:26:20.284Z,7.50
2022-11-27T11:27:20.264Z,8.00
2022-11-27T11:28:20.245Z,7.30
2022-11-27T11:29:20.241Z,7.50
2022-11-27T11:30:20.217Z,7.80
2022-11-27T11:31:20.272Z,7.40
2022-11-27T11:32:27.762Z,8.20
2022-11-27T11:33:20.178Z,7.90
2022-11-27T11:34:20.175Z,8.60
2022-11-27T11:35:20.155Z,8.10
2022-11-27T11:36:20.163Z,8.00
2022-11-27T11:37:20.169Z,8.80
2022-11-27T11:38:20.140Z,14.50
2022-11-27T11:39:20.130Z,11.50
2022-11-27T11:40:20.102Z,10.50
2022-11-27T11:41:20.092Z,9.10
2022-11-27T11:42:20.083Z,8.80
2022-11-27T11:43:20.060Z,9.20
2022-11-27T11:44:20.051Z,8.10
2022-11-27T11:45:20.954Z,8.80
2022-11-27T11:46:20.116Z,8.20
2022-11-27T11:47:20.055Z,7.60
2022-11-27T11:48:20.029Z,7.90
2022-11-27T11:49:20.022Z,8.30
2022-11-27T11:50:19.981Z,9.30
2022-11-27T11:51:21.862Z,8.90
2022-11-27T11:52:19.976Z,8.70
2022-11-27T11:53:19.953Z,8.90
2022-11-27T11:54:19.960Z,8.30
2022-11-27T11:55:19.941Z,9.60
2022-11-27T11:56:19.925Z,9.10
2022-11-27T11:57:19.940Z,10.60
2022-11-27T11:58:19.892Z,9.00
2022-11-27T11:59:19.901Z,8.50
2022-11-27T12:00:21.219Z,8.80
2022-11-27T12:01:26.937Z,9.30
2022-11-27T12:02:20.013Z,8.30
2022-11-27T12:03:19.889Z,9.70
2022-11-27T12:04:19.889Z,8.40
2022-11-27T12:05:19.962Z,8.80
2022-11-27T12:06:19.837Z,9.40
2022-11-27T12:07:19.879Z,9.20
2022-11-27T12:08:19.812Z,9.80
2022-11-27T12:09:20.145Z,10.20
2022-11-27T12:10:19.769Z,9.10
2022-11-27T12:11:19.757Z,8.90
2022-11-27T12:12:19.755Z,9.70
2022-11-27T12:13:19.729Z,8.90
2022-11-27T12:14:19.734Z,8.40
2022-11-27T12:15:19.708Z,8.70
2022-11-27T12:16:19.806Z,9.50
2022-11-27T12:17:19.691Z,8.70
2022-11-27T12:18:19.692Z,8.80
2022-11-27T12:19:19.689Z,9.30
2022-11-27T12:20:19.672Z,9.10
2022-11-27T12:21:19.658Z,8.70
2022-11-27T12:22:19.633Z,8.90
2022-11-27T12:23:19.638Z,9.50
2022-11-27T12:24:19.644Z,8.40
2022-11-27T12:25:19.666Z,8.60
2022-11-27T12:26:19.630Z,8.10
2022-11-27T12:27:19.600Z,8.60
2022-11-27T12:28:19.568Z,8.40
2022-11-27T12:29:19.567Z,9.70
2022-11-27T12:30:19.562Z,8.90
2022-11-27T12:31:19.597Z,8.40
2022-11-27T12:32:27.032Z,8.80
2022-11-27T12:33:19.535Z,8.60
2022-11-27T12:34:19.505Z,8.80
2022-11-27T12:35:19.511Z,8.90
2022-11-27T12:36:19.490Z,9.10
2022-11-27T12:37:19.496Z,8.40
2022-11-27T12:38:19.470Z,8.50
2022-11-27T12:39:19.463Z,8.30
2022-11-27T12:40:19.484Z,9.50
2022-11-27T12:41:19.426Z,9.00
2022-11-27T12:42:22.168Z,9.60
2022-11-27T12:43:19.409Z,9.20
2022-11-27T12:44:19.419Z,9.60
2022-11-27T12:45:19.385Z,9.20
2022-11-27T12:46:19.450Z,10.30
2022-11-27T12:47:19.378Z,9.60
2022-11-27T12:48:19.365Z,9.60
2022-11-27T12:49:19.347Z,9.20
2022-11-27T12:50:19.333Z,8.90
2022-11-27T12:51:19.365Z,10.50
2022-11-27T12:52:19.332Z,9.80
2022-11-27T12:53:24.538Z,8.90
2022-11-27T12:54:19.307Z,8.50
2022-11-27T12:55:19.332Z,9.20
2022-11-27T12:56:19.280Z,9.30
2022-11-27T12:57:19.348Z,9.10
2022-11-27T12:58:19.235Z,9.40
2022-11-27T12:59:19.272Z,8.40
2022-11-27T13:00:19.247Z,9.10
2022-11-27T13:01:23.630Z,9.20
2022-11-27T13:02:19.278Z,8.80
2022-11-27T13:03:19.203Z,8.40
2022-11-27T13:04:19.214Z,8.50
2022-11-27T13:05:19.165Z,8.70
2022-11-27T13:06:19.163Z,9.40
2022-11-27T13:07:19.178Z,9.40
2022-11-27T13:08:19.165Z,9.00
2022-11-27T13:09:19.173Z,10.40
2022-11-27T13:10:19.135Z,8.80
2022-11-27T13:11:19.113Z,9.20
2022-11-27T13:12:19.106Z,9.40
2022-11-27T13:13:19.096Z,9.30
2022-11-27T13:14:19.077Z,9.30
2022-11-27T13:15:19.056Z,8.50
2022-11-27T13:16:19.161Z,9.40
2022-11-27T13:17:19.030Z,11.10
2022-11-27T13:18:19.038Z,10.50
2022-11-27T13:19:19.069Z,10.80
2022-11-27T13:20:19.046Z,9.40
2022-11-27T13:21:19.008Z,9.80
2022-11-27T13:22:19.059Z,8.80
2022-11-27T13:23:19.000Z,8.70